Fort Stewart, GA

2:28 PM EST on January 22, 2017 (GMT -0500)
Wright Army Air Field | | Change Station
Active Advisory: Small Craft Advisory

Elev 46 ft 31.89 °N, 81.56 °W | Updated 6 minutes ago

Rain
Rain
63 °F
Feels Like 63 °F
N
8
Wind Variable Wind from SE

Today
High -- | Low -- °F
--% Chance of Precip.
Yesterday
High -- | Low -- °F
Precip. -- in
Pressure 29.48 in
Visibility 10.0 miles
Clouds Mostly Cloudy 300 ft
Overcast 3300 ft
Dew Point 61 °F
Humidity 94%
Rainfall 2.64 in
Snow Depth Not available.
7:24 AM 5:51 PM
Waning Crescent, 24% visible
SPECI KLHW 221922Z AUTO 13007KT 10SM BKN003 OVC033 17/16 A2948 RMK AO2 RAE22
Pressure 29.48 in
Visibility 10.0 miles
Clouds Mostly Cloudy 300 ft
Overcast 3300 ft
Dew Point 61 °F
Humidity 94%
Rainfall 2.64 in
Snow Depth Not available.
7:24 AM 5:51 PM
Waning Crescent, 24% visible
SPECI KLHW 221922Z AUTO 13007KT 10SM BKN003 OVC033 17/16 A2948 RMK AO2 RAE22

Get Your Daily Forecast Email!

Thanks for signing up!

Be on the lookout for a verification email in your inbox.

You'll start receiving the daily forecast at 8 AM.

×

10-Day Weather Forecast

Almanac

Astronomy

Jan. 22, 2017 Rise Set
Actual Time
Civil Twilight
Nautical Twilight
Astronomical Twilight
Moon
Length of Visible Light
Length of Day
Tomorrow will be .
, % of the Moon is Illuminated

Today's Extremes

State Highs State Lows

Community

WunderPhotos

Upload Photos

1,962,540 photos uploaded!

WunderBlog® & News

Nearby

Air Quality

  Air Quality AQ Index Pollutant
Not available.

Snow Depth

Station Depth Elevation

Earthquake Activity

City Distance Mag. Time & Date
Minimum magnitude displayed is 2.5.

Coastal Water Temperatures

Place Temperature

Stations

Nearby Weather Stations

Station Location Temp. Windchill Dew Point Humidity Wind Precip. Elev Updated Type
                   

Watches & Warnings

Small Craft Advisory
Issued: 10:29 AM EST Jan. 22, 2017 – National Weather Service

... Small Craft Advisory remains in effect until 7 am EST
Tuesday...

* impacts... wind and or wave conditions will be hazardous to
small craft.

Precautionary/preparedness actions...

During a Small Craft Advisory... inexperienced mariners...
especially those operating smaller vessels... should avoid
navigating in hazardous conditions.